createdAt,value
2018-05-04T00:01:11.997Z,0.47
2018-05-04T00:03:41.118Z,0.73
2018-05-04T00:06:10.229Z,0.37
2018-05-04T00:08:39.718Z,0.90
2018-05-04T00:11:08.845Z,0.60
2018-05-04T00:13:38.100Z,0.50
2018-05-04T00:16:07.247Z,0.40
2018-05-04T00:18:36.363Z,0.40
2018-05-04T00:21:05.485Z,0.50
2018-05-04T00:23:34.633Z,0.43
2018-05-04T00:26:03.521Z,0.50
2018-05-04T00:28:32.641Z,0.60
2018-05-04T00:31:02.001Z,0.57
2018-05-04T00:33:30.997Z,0.57
2018-05-04T00:36:00.937Z,0.40
2018-05-04T00:38:30.099Z,0.80
2018-05-04T00:40:59.212Z,0.60
2018-05-04T00:43:28.325Z,0.40
2018-05-04T00:45:57.465Z,0.50
2018-05-04T00:48:26.581Z,0.40
2018-05-04T00:50:55.697Z,0.50
2018-05-04T00:53:24.878Z,0.50
2018-05-04T00:55:53.998Z,0.50
2018-05-04T00:58:23.119Z,0.47
2018-05-04T01:00:52.261Z,0.40
2018-05-04T01:03:21.462Z,0.60
2018-05-04T01:05:50.585Z,0.50
2018-05-04T01:08:20.049Z,0.50
2018-05-04T01:10:49.174Z,0.50
2018-05-04T01:13:18.402Z,0.50
2018-05-04T01:15:47.961Z,0.57
2018-05-04T01:18:17.076Z,0.70
2018-05-04T01:20:46.189Z,0.40
2018-05-04T01:23:15.343Z,0.57
2018-05-04T01:25:44.473Z,0.87
2018-05-04T01:28:13.638Z,0.67
2018-05-04T01:30:43.339Z,0.60
2018-05-04T01:33:12.461Z,0.83
2018-05-04T01:35:41.577Z,0.57
2018-05-04T01:38:10.721Z,0.50
2018-05-04T01:40:39.833Z,0.53
2018-05-04T01:43:09.023Z,0.50
2018-05-04T01:45:38.327Z,0.57
2018-05-04T01:48:07.441Z,0.50
2018-05-04T01:50:36.632Z,0.50
2018-05-04T01:53:05.769Z,0.57
2018-05-04T01:55:34.884Z,0.30
2018-05-04T01:58:04.053Z,0.50
2018-05-04T02:00:33.109Z,0.60
2018-05-04T02:03:02.230Z,0.60
2018-05-04T02:05:33.165Z,0.60
2018-05-04T02:08:02.285Z,0.50
2018-05-04T02:10:31.431Z,0.70
2018-05-04T02:13:00.790Z,0.70
2018-05-04T02:15:29.906Z,0.80
2018-05-04T02:17:59.186Z,0.50
2018-05-04T02:20:28.321Z,0.50
2018-05-04T02:22:57.444Z,0.70
2018-05-04T02:25:26.558Z,0.50
2018-05-04T02:27:55.700Z,0.43
2018-05-04T02:30:24.817Z,0.57
2018-05-04T02:32:53.938Z,0.60
2018-05-04T02:35:23.094Z,0.60
2018-05-04T02:37:52.216Z,0.43
2018-05-04T02:40:21.337Z,0.60
2018-05-04T02:42:50.470Z,0.70
2018-05-04T02:45:19.588Z,0.40
2018-05-04T02:47:48.709Z,0.50
2018-05-04T02:50:18.173Z,0.40
2018-05-04T02:52:47.298Z,0.67
2018-05-04T02:55:16.416Z,0.53
2018-05-04T02:57:45.882Z,0.60
2018-05-04T03:00:15.025Z,0.80
2018-05-04T03:02:44.141Z,0.57
2018-05-04T03:05:13.286Z,0.47
2018-05-04T03:07:42.405Z,0.43
2018-05-04T03:10:12.113Z,0.50
2018-05-04T03:12:41.257Z,0.70
2018-05-04T03:15:10.385Z,0.60
2018-05-04T03:17:39.513Z,0.67
2018-05-04T03:20:08.663Z,0.60
2018-05-04T03:22:38.344Z,0.50
2018-05-04T03:25:07.465Z,0.50
2018-05-04T03:27:36.618Z,0.37
2018-05-04T03:30:05.733Z,1.00
2018-05-04T03:32:34.851Z,0.70
2018-05-04T03:35:04.010Z,0.67
2018-05-04T03:37:33.134Z,0.60
2018-05-04T03:40:02.262Z,0.70
2018-05-04T03:42:31.539Z,0.60
2018-05-04T03:45:00.656Z,0.60
2018-05-04T03:47:29.768Z,0.50
2018-05-04T03:49:59.226Z,0.67
2018-05-04T03:52:28.337Z,0.47
2018-05-04T03:54:57.456Z,0.60
2018-05-04T03:57:38.221Z,0.43
2018-05-04T04:00:18.719Z,0.40
2018-05-04T04:16:19.416Z,0.30
2018-05-04T04:18:47.232Z,0.60
2018-05-04T04:21:15.059Z,0.40
2018-05-04T04:23:42.911Z,0.50
2018-05-04T04:26:10.748Z,0.50
2018-05-04T04:28:38.570Z,0.40
2018-05-04T04:31:06.711Z,0.40
2018-05-04T04:33:34.569Z,0.60
2018-05-04T04:36:02.168Z,0.37
2018-05-04T04:38:30.206Z,0.50
2018-05-04T04:40:58.031Z,0.40
2018-05-04T04:43:26.113Z,0.47
2018-05-04T04:45:53.972Z,0.40
2018-05-04T04:48:21.814Z,0.60
2018-05-04T04:50:49.642Z,0.50
2018-05-04T04:53:17.490Z,0.47
2018-05-04T04:55:45.335Z,0.40
2018-05-04T04:58:13.159Z,0.40
2018-05-04T05:00:41.007Z,0.40
2018-05-04T05:03:08.850Z,0.60
2018-05-04T05:05:36.684Z,0.47
2018-05-04T05:08:04.905Z,0.53
2018-05-04T05:10:32.734Z,0.40
2018-05-04T05:13:00.568Z,0.60
2018-05-04T05:15:28.417Z,0.50
2018-05-04T05:17:56.293Z,0.50
2018-05-04T05:20:29.642Z,0.60
2018-05-04T05:22:57.499Z,0.60
2018-05-04T05:25:25.363Z,0.50
2018-05-04T05:27:52.977Z,0.37
2018-05-04T05:30:20.801Z,0.37
2018-05-04T05:32:48.627Z,0.67
2018-05-04T05:35:16.473Z,0.53
2018-05-04T05:37:44.353Z,0.60
2018-05-04T05:40:12.216Z,0.40
2018-05-04T05:42:40.259Z,0.60
2018-05-04T05:45:08.078Z,0.60
2018-05-04T05:47:35.906Z,0.60
2018-05-04T05:50:04.168Z,0.50
2018-05-04T05:52:32.000Z,0.60
2018-05-04T05:54:59.846Z,0.47
2018-05-04T05:57:27.691Z,0.60
2018-05-04T05:59:55.515Z,0.70
2018-05-04T06:02:23.339Z,0.60
2018-05-04T06:04:51.189Z,0.70
2018-05-04T06:07:19.018Z,0.53
2018-05-04T06:09:46.849Z,0.50
2018-05-04T06:12:14.405Z,0.67
2018-05-04T06:14:42.221Z,0.63
2018-05-04T06:17:10.055Z,0.57
2018-05-04T06:19:37.912Z,0.53
2018-05-04T06:22:05.747Z,0.57
2018-05-04T06:24:33.588Z,0.70
2018-05-04T06:27:01.462Z,0.60
2018-05-04T06:29:29.286Z,0.77
2018-05-04T06:31:57.111Z,0.60
2018-05-04T06:34:24.986Z,1.10
2018-05-04T06:36:52.802Z,0.80
2018-05-04T06:39:20.643Z,0.90
2018-05-04T06:41:48.698Z,0.87
2018-05-04T06:44:16.523Z,0.70
2018-05-04T06:46:44.387Z,0.80
2018-05-04T06:49:12.238Z,0.77
2018-05-04T06:51:40.062Z,0.93
2018-05-04T06:54:07.891Z,1.07
2018-05-04T06:56:36.059Z,0.90
2018-05-04T06:59:04.707Z,0.87
2018-05-04T07:01:32.580Z,1.07
2018-05-04T07:04:00.783Z,0.70
2018-05-04T07:06:28.812Z,0.80
2018-05-04T07:08:56.657Z,0.87
2018-05-04T07:11:24.763Z,0.80
2018-05-04T07:13:52.604Z,0.83
2018-05-04T07:16:20.453Z,0.97
2018-05-04T07:18:48.375Z,0.70
2018-05-04T07:21:16.214Z,0.90
2018-05-04T07:23:44.623Z,0.87
2018-05-04T07:26:12.491Z,0.70
2018-05-04T07:28:40.463Z,0.70
2018-05-04T07:31:08.511Z,0.93
2018-05-04T07:33:36.720Z,0.90
2018-05-04T07:36:04.644Z,1.03
2018-05-04T07:38:32.638Z,0.87
2018-05-04T07:41:00.528Z,0.90
2018-05-04T07:43:28.486Z,0.87
2018-05-04T07:45:56.338Z,0.90
2018-05-04T07:48:24.009Z,1.00
2018-05-04T07:50:52.903Z,1.00
2018-05-04T07:53:20.785Z,0.90
2018-05-04T07:55:48.703Z,0.97
2018-05-04T07:58:17.086Z,1.03
2018-05-04T08:03:20.000Z,0.70
2018-05-04T08:05:48.547Z,0.70
2018-05-04T08:08:17.289Z,0.73
2018-05-04T08:10:45.564Z,0.77
2018-05-04T08:13:13.410Z,0.83
2018-05-04T08:15:41.050Z,0.60
2018-05-04T08:18:08.913Z,0.90
2018-05-04T08:20:37.400Z,0.90
2018-05-04T08:23:05.276Z,0.80
2018-05-04T08:25:33.135Z,0.70
2018-05-04T08:28:00.974Z,0.70
2018-05-04T08:30:28.814Z,0.60
2018-05-04T08:32:56.679Z,0.70
2018-05-04T08:35:24.740Z,0.80
2018-05-04T08:37:52.550Z,0.70
2018-05-04T08:40:20.407Z,0.90
2018-05-04T08:42:48.415Z,0.83
2018-05-04T08:45:16.267Z,0.70
2018-05-04T08:47:44.108Z,0.70
2018-05-04T08:50:11.735Z,0.93
2018-05-04T08:52:39.399Z,0.80
2018-05-04T08:55:08.094Z,0.70
2018-05-04T08:57:36.025Z,0.53
2018-05-04T09:00:03.879Z,0.80
2018-05-04T09:02:31.749Z,0.90
2018-05-04T09:04:59.579Z,0.70
2018-05-04T09:07:27.426Z,0.67
2018-05-04T09:09:55.311Z,0.60
2018-05-04T09:12:23.205Z,0.50
2018-05-04T09:14:51.036Z,0.73
2018-05-04T09:17:18.908Z,0.60
2018-05-04T09:19:46.883Z,0.67
2018-05-04T09:22:14.890Z,0.70
2018-05-04T09:24:42.790Z,0.60
2018-05-04T09:27:10.827Z,0.40
2018-05-04T09:29:38.694Z,0.70
2018-05-04T09:32:06.561Z,0.50
2018-05-04T09:34:34.447Z,0.60
2018-05-04T09:37:02.305Z,0.50
2018-05-04T09:39:30.163Z,0.67
2018-05-04T09:41:58.251Z,0.77
2018-05-04T09:44:26.113Z,0.60
2018-05-04T09:46:54.017Z,0.63
2018-05-04T09:49:21.874Z,0.50
2018-05-04T09:51:49.724Z,0.60
2018-05-04T09:54:18.000Z,0.67
2018-05-04T09:56:45.854Z,0.57
2018-05-04T09:59:13.717Z,0.80
2018-05-04T10:01:41.929Z,0.57
2018-05-04T10:04:10.483Z,0.80
2018-05-04T10:06:38.336Z,0.73
2018-05-04T10:09:06.246Z,0.43
2018-05-04T10:11:34.362Z,0.60
2018-05-04T10:14:02.336Z,0.67
2018-05-04T10:16:30.211Z,0.57
2018-05-04T10:18:58.048Z,0.70
2018-05-04T10:21:25.905Z,0.60
2018-05-04T10:23:53.762Z,0.60
2018-05-04T10:26:21.607Z,0.60
2018-05-04T10:28:49.487Z,0.43
2018-05-04T10:31:17.416Z,0.87
2018-05-04T10:33:45.411Z,0.67
2018-05-04T10:36:13.259Z,0.70
2018-05-04T10:38:41.234Z,0.60
2018-05-04T10:41:09.203Z,0.50
2018-05-04T10:43:37.858Z,0.90
2018-05-04T10:46:05.735Z,0.73
2018-05-04T10:48:33.595Z,0.67
2018-05-04T10:51:01.459Z,0.60
2018-05-04T10:53:29.362Z,0.70
2018-05-04T10:55:57.000Z,0.70
2018-05-04T10:58:24.617Z,0.70
2018-05-04T11:00:52.553Z,0.77
2018-05-04T11:03:20.408Z,0.67
2018-05-04T11:05:48.242Z,0.70
2018-05-04T11:08:16.131Z,0.70
2018-05-04T11:10:43.971Z,0.60
2018-05-04T11:13:11.840Z,0.70
2018-05-04T11:15:39.753Z,0.80
2018-05-04T11:18:08.226Z,0.80
2018-05-04T11:20:36.077Z,0.70
2018-05-04T11:23:04.254Z,0.80
2018-05-04T11:25:32.210Z,0.77
2018-05-04T11:28:00.267Z,0.63
2018-05-04T11:30:28.469Z,0.80
2018-05-04T11:32:56.373Z,0.70
2018-05-04T11:35:24.206Z,0.73
2018-05-04T11:37:52.089Z,0.87
2018-05-04T11:40:19.980Z,0.80
2018-05-04T11:42:47.605Z,0.50
2018-05-04T11:45:15.293Z,0.60
2018-05-04T11:47:43.122Z,0.70
2018-05-04T11:50:11.436Z,0.70
2018-05-04T11:52:39.330Z,0.60
2018-05-04T11:55:07.187Z,0.50
2018-05-04T11:57:35.264Z,0.70
2018-05-04T12:00:03.163Z,0.70
2018-05-04T12:02:30.805Z,0.80
2018-05-04T12:04:58.656Z,1.00
2018-05-04T12:07:26.640Z,0.67
2018-05-04T12:09:54.506Z,0.70
2018-05-04T12:12:22.391Z,0.90
2018-05-04T12:14:50.265Z,0.50
2018-05-04T12:17:18.131Z,0.60
2018-05-04T12:19:45.993Z,0.70
2018-05-04T12:22:13.857Z,0.60
2018-05-04T12:24:41.703Z,0.60
2018-05-04T12:27:09.567Z,0.80
2018-05-04T12:29:37.930Z,0.90
2018-05-04T12:32:05.810Z,0.70
2018-05-04T12:34:33.955Z,0.67
2018-05-04T12:37:05.665Z,0.90
2018-05-04T12:39:35.214Z,0.80
2018-05-04T12:42:03.766Z,0.70
2018-05-04T12:44:32.596Z,0.67
2018-05-04T12:47:06.323Z,0.50
2018-05-04T12:49:34.387Z,0.70
2018-05-04T12:52:02.259Z,1.00
2018-05-04T12:54:30.679Z,0.67
2018-05-04T12:56:58.517Z,0.60
2018-05-04T12:59:26.442Z,0.80
2018-05-04T13:01:54.361Z,0.90
2018-05-04T13:04:22.871Z,1.00
2018-05-04T13:06:50.887Z,0.60
2018-05-04T13:09:22.180Z,1.07
2018-05-04T13:11:50.346Z,0.83
2018-05-04T13:14:17.950Z,0.60
2018-05-04T13:16:45.790Z,0.60
2018-05-04T13:19:13.664Z,0.83
2018-05-04T13:21:41.517Z,0.60
2018-05-04T13:24:09.372Z,0.93
2018-05-04T13:26:37.884Z,0.77
2018-05-04T13:29:05.780Z,1.10
2018-05-04T13:31:33.634Z,0.87
2018-05-04T13:34:01.515Z,0.67
2018-05-04T13:36:29.429Z,0.90
2018-05-04T13:38:57.421Z,0.80
2018-05-04T13:41:33.316Z,0.60
2018-05-04T13:44:03.823Z,0.90
2018-05-04T13:46:32.329Z,0.70
2018-05-04T13:49:00.235Z,1.50
2018-05-04T13:51:28.692Z,0.87
2018-05-04T13:54:02.266Z,0.70
2018-05-04T13:56:30.102Z,0.90
2018-05-04T13:58:57.952Z,0.90
2018-05-04T14:01:25.592Z,0.83
2018-05-04T14:03:53.519Z,1.00
2018-05-04T14:06:21.262Z,0.73
2018-05-04T14:08:50.048Z,0.80
2018-05-04T14:11:18.179Z,0.97
2018-05-04T14:13:46.124Z,0.87
2018-05-04T14:16:14.016Z,0.67
2018-05-04T14:18:41.872Z,0.97
2018-05-04T14:21:09.715Z,1.03
2018-05-04T14:23:38.373Z,0.70
2018-05-04T14:26:06.274Z,0.83
2018-05-04T14:28:34.116Z,0.90
2018-05-04T14:31:01.996Z,1.10
2018-05-04T14:33:30.913Z,1.17
2018-05-04T14:35:59.378Z,0.80
2018-05-04T14:38:27.335Z,0.93
2018-05-04T14:40:55.461Z,1.00
2018-05-04T14:43:23.073Z,1.13
2018-05-04T14:45:50.944Z,1.00
2018-05-04T14:48:18.916Z,0.87
2018-05-04T14:50:52.357Z,0.80
2018-05-04T14:53:20.218Z,1.20
2018-05-04T14:55:47.874Z,1.13
2018-05-04T14:58:16.133Z,1.07
2018-05-04T15:00:44.027Z,1.10
2018-05-04T15:03:12.024Z,1.00
2018-05-04T15:05:39.886Z,0.90
2018-05-04T15:08:07.809Z,0.90
2018-05-04T15:10:35.769Z,1.07
2018-05-04T15:13:03.882Z,1.23
2018-05-04T15:15:31.726Z,1.20
2018-05-04T15:17:59.752Z,1.17
2018-05-04T15:20:27.868Z,1.47
2018-05-04T15:22:56.444Z,0.70
2018-05-04T15:25:24.317Z,0.60
2018-05-04T15:27:52.214Z,0.60
2018-05-04T15:30:20.123Z,0.80
2018-05-04T15:32:47.987Z,0.83
2018-05-04T15:35:16.177Z,0.60
2018-05-04T15:37:44.035Z,0.70
2018-05-04T15:40:12.787Z,0.50
2018-05-04T15:42:40.677Z,0.50
2018-05-04T15:45:08.612Z,0.60
2018-05-04T15:47:36.475Z,0.60
2018-05-04T15:50:10.432Z,0.50
2018-05-04T15:52:38.757Z,0.50
2018-05-04T15:55:06.393Z,0.60
2018-05-04T15:57:34.563Z,0.50
2018-05-04T16:00:02.457Z,0.43
2018-05-04T16:02:30.457Z,0.30
2018-05-04T16:04:58.343Z,0.67
2018-05-04T16:07:26.191Z,0.40
2018-05-04T16:09:54.056Z,0.70
2018-05-04T16:12:21.927Z,0.60
2018-05-04T16:14:49.762Z,0.60
2018-05-04T16:17:17.676Z,0.50
2018-05-04T16:19:45.539Z,0.43
2018-05-04T16:22:13.494Z,0.70
2018-05-04T16:24:41.512Z,0.60
2018-05-04T16:27:09.279Z,0.67
2018-05-04T16:29:37.130Z,0.70
2018-05-04T16:32:04.997Z,0.73
2018-05-04T16:34:32.914Z,0.90
2018-05-04T16:37:00.750Z,0.93
2018-05-04T16:39:28.593Z,0.90
2018-05-04T16:41:56.470Z,0.83
2018-05-04T16:44:24.309Z,0.90
2018-05-04T16:46:57.836Z,0.90
2018-05-04T16:49:26.081Z,1.10
2018-05-04T16:51:53.954Z,1.00
2018-05-04T16:54:21.863Z,1.10
2018-05-04T16:56:49.460Z,0.90
2018-05-04T16:59:17.074Z,0.90
2018-05-04T17:01:44.733Z,1.03
2018-05-04T17:04:12.347Z,1.10
2018-05-04T17:06:39.948Z,0.93
2018-05-04T17:09:07.601Z,0.97
2018-05-04T17:11:35.442Z,0.90
2018-05-04T17:14:03.265Z,0.90
2018-05-04T17:16:30.888Z,0.90
2018-05-04T17:18:58.490Z,1.33
2018-05-04T17:21:26.492Z,1.53
2018-05-04T17:23:57.123Z,1.10
2018-05-04T17:26:24.724Z,1.47
2018-05-04T17:28:52.558Z,1.07
2018-05-04T17:31:20.428Z,1.50
2018-05-04T17:33:48.258Z,1.30
2018-05-04T17:36:16.116Z,1.20
2018-05-04T17:38:43.993Z,1.30
2018-05-04T17:41:11.827Z,1.30
2018-05-04T17:43:39.442Z,1.40
2018-05-04T17:46:07.322Z,1.50
2018-05-04T17:48:34.929Z,1.30
2018-05-04T17:51:02.774Z,1.37
2018-05-04T17:53:30.626Z,1.50
2018-05-04T17:55:58.462Z,1.37
2018-05-04T17:58:26.441Z,1.40
2018-05-04T18:00:54.640Z,1.50
2018-05-04T18:03:22.473Z,1.60
2018-05-04T18:05:50.311Z,1.80
2018-05-04T18:08:18.553Z,1.60
2018-05-04T18:10:46.381Z,1.70
2018-05-04T18:13:14.222Z,1.70
2018-05-04T18:15:42.134Z,1.60
2018-05-04T18:18:10.070Z,1.60
2018-05-04T18:20:37.949Z,1.50
2018-05-04T18:23:06.335Z,1.60
2018-05-04T18:25:34.158Z,1.70
2018-05-04T18:28:01.991Z,1.53
2018-05-04T18:30:29.850Z,1.60
2018-05-04T18:32:57.781Z,1.43
2018-05-04T18:35:25.664Z,1.43
2018-05-04T18:37:53.539Z,1.60
2018-05-04T18:40:21.371Z,1.43
2018-05-04T18:42:54.958Z,1.60
2018-05-04T18:45:28.373Z,1.30
2018-05-04T18:47:56.220Z,1.50
2018-05-04T18:50:24.043Z,1.70
2018-05-04T18:52:51.904Z,1.60
2018-05-04T18:55:20.057Z,1.40
2018-05-04T18:57:47.891Z,1.07
2018-05-04T19:00:15.722Z,1.17
2018-05-04T19:02:49.179Z,1.20
2018-05-04T19:05:17.048Z,1.20
2018-05-04T19:07:44.875Z,1.07
2018-05-04T19:10:12.760Z,1.00
2018-05-04T19:12:40.590Z,1.10
2018-05-04T19:15:08.453Z,1.23
2018-05-04T19:17:36.296Z,1.07
2018-05-04T19:20:04.127Z,1.20
2018-05-04T19:22:31.958Z,1.00
2018-05-04T19:24:59.815Z,1.07
2018-05-04T19:27:27.667Z,1.10
2018-05-04T19:29:55.503Z,0.80
2018-05-04T19:32:23.358Z,1.00
2018-05-04T19:34:51.199Z,1.07
2018-05-04T19:37:19.320Z,1.03
2018-05-04T19:39:46.955Z,0.90
2018-05-04T19:42:14.804Z,0.93
2018-05-04T19:44:42.647Z,0.90
2018-05-04T19:47:10.535Z,0.90
2018-05-04T19:49:38.363Z,0.70
2018-05-04T19:52:06.194Z,0.83
2018-05-04T19:54:34.094Z,0.90
2018-05-04T19:57:01.945Z,0.80
2018-05-04T19:59:29.771Z,0.80
2018-05-04T20:02:03.582Z,0.80
2018-05-04T20:04:31.406Z,0.70
2018-05-04T20:06:59.241Z,0.90
2018-05-04T20:09:27.095Z,0.70
2018-05-04T20:11:54.935Z,0.70
2018-05-04T20:14:22.759Z,0.63
2018-05-04T20:16:50.610Z,0.73
2018-05-04T20:19:19.174Z,0.67
2018-05-04T20:21:47.024Z,0.67
2018-05-04T20:24:14.984Z,0.80
2018-05-04T20:26:42.819Z,0.70
2018-05-04T20:29:10.738Z,0.70
2018-05-04T20:31:38.676Z,0.60
2018-05-04T20:34:06.789Z,0.53
2018-05-04T20:36:34.999Z,0.63
2018-05-04T20:39:03.669Z,0.50
2018-05-04T20:41:32.450Z,0.77
2018-05-04T20:44:00.708Z,0.60
2018-05-04T20:46:29.208Z,0.30
2018-05-04T20:48:57.169Z,0.50
2018-05-04T20:51:25.979Z,0.40
2018-05-04T20:53:54.630Z,0.63
2018-05-04T20:56:23.083Z,0.60
2018-05-04T20:58:51.184Z,0.50
2018-05-04T21:01:19.613Z,0.50
2018-05-04T21:03:47.500Z,0.40
2018-05-04T21:06:15.423Z,0.70
2018-05-04T21:08:43.829Z,0.50
2018-05-04T21:11:11.832Z,0.60
2018-05-04T21:13:39.905Z,0.40
2018-05-04T21:16:07.953Z,0.50
2018-05-04T21:18:35.783Z,0.50
2018-05-04T21:21:03.610Z,0.60
2018-05-04T21:23:31.474Z,0.70
2018-05-04T21:25:59.316Z,0.40
2018-05-04T21:28:29.120Z,0.53
2018-05-04T21:30:57.041Z,0.40
2018-05-04T21:33:25.026Z,0.40
2018-05-04T21:35:53.236Z,0.37
2018-05-04T21:38:21.084Z,0.60
2018-05-04T21:40:48.910Z,0.43
2018-05-04T21:43:16.750Z,0.50
2018-05-04T21:45:44.619Z,0.60
2018-05-04T21:48:12.450Z,0.70
2018-05-04T21:50:40.046Z,0.50
2018-05-04T21:53:08.301Z,0.50
2018-05-04T21:55:35.909Z,0.60
2018-05-04T21:58:03.738Z,0.40
2018-05-04T22:00:31.595Z,0.60
2018-05-04T22:03:05.074Z,0.30
2018-05-04T22:05:33.353Z,0.60
2018-05-04T22:08:01.180Z,0.50
2018-05-04T22:10:29.028Z,0.57
2018-05-04T22:12:56.890Z,0.40
2018-05-04T22:15:24.885Z,0.40
2018-05-04T22:17:53.264Z,0.60
2018-05-04T22:20:21.109Z,0.50
2018-05-04T22:22:48.935Z,0.50
2018-05-04T22:25:16.759Z,0.50
2018-05-04T22:27:50.279Z,0.50
2018-05-04T22:30:18.102Z,0.47
2018-05-04T22:32:45.934Z,0.60
2018-05-04T22:35:13.788Z,0.50
2018-05-04T22:37:41.639Z,0.60
2018-05-04T22:40:09.467Z,0.40
2018-05-04T22:42:37.394Z,0.40
2018-05-04T22:45:05.015Z,0.60
2018-05-04T22:47:32.845Z,0.60
2018-05-04T22:50:01.156Z,0.43
2018-05-04T22:52:28.986Z,0.60
2018-05-04T22:54:56.836Z,0.50
2018-05-04T22:57:24.683Z,0.50
2018-05-04T22:59:52.518Z,0.50
2018-05-04T23:02:20.343Z,0.50
2018-05-04T23:04:48.194Z,0.30
2018-05-04T23:07:15.802Z,0.40
2018-05-04T23:09:43.537Z,0.57
2018-05-04T23:12:11.392Z,0.50
2018-05-04T23:14:39.214Z,0.60
2018-05-04T23:17:07.050Z,0.50
2018-05-04T23:19:34.900Z,0.50
2018-05-04T23:22:02.962Z,0.40
2018-05-04T23:24:30.910Z,0.43
2018-05-04T23:26:58.754Z,0.50
2018-05-04T23:29:26.600Z,0.50
2018-05-04T23:31:54.622Z,0.60
2018-05-04T23:34:22.377Z,0.40
2018-05-04T23:36:50.368Z,0.40
2018-05-04T23:39:18.199Z,0.50
2018-05-04T23:41:46.048Z,0.33
2018-05-04T23:44:13.896Z,0.30
2018-05-04T23:46:42.582Z,0.67
2018-05-04T23:49:10.619Z,0.33
2018-05-04T23:51:38.457Z,0.40
2018-05-04T23:54:06.063Z,0.30
2018-05-04T23:56:34.189Z,0.57
2018-05-04T23:59:02.149Z,0.40
